sensor_id;sensor_type;location;lat;lon;timestamp;P1;durP1;ratioP1;P2;durP2;ratioP2
13319;SDS011;59599;47.608;12.190;2023-09-19T00:34:48;3.87;;;2.30;;
13319;SDS011;59599;47.608;12.190;2023-09-19T00:37:15;4.73;;;2.77;;
13319;SDS011;59599;47.608;12.190;2023-09-19T00:39:42;5.07;;;2.10;;
13319;SDS011;59599;47.608;12.190;2023-09-19T00:42:08;3.33;;;2.03;;
13319;SDS011;59599;47.608;12.190;2023-09-19T00:44:33;4.00;;;2.27;;
13319;SDS011;59599;47.608;12.190;2023-09-19T00:47:02;3.20;;;2.20;;
13319;SDS011;59599;47.608;12.190;2023-09-19T00:49:28;3.10;;;2.07;;
13319;SDS011;59599;47.608;12.190;2023-09-19T00:51:58;3.10;;;1.93;;
13319;SDS011;59599;47.608;12.190;2023-09-19T04:00:19;2.08;;;1.85;;
13319;SDS011;59599;47.608;12.190;2023-09-19T04:02:47;4.87;;;1.87;;
13319;SDS011;59599;47.608;12.190;2023-09-19T04:05:13;3.47;;;2.17;;
13319;SDS011;59599;47.608;12.190;2023-09-19T04:07:39;2.30;;;2.10;;
13319;SDS011;59599;47.608;12.190;2023-09-19T04:10:05;3.63;;;2.57;;
13319;SDS011;59599;47.608;12.190;2023-09-19T04:12:33;4.97;;;2.70;;
13319;SDS011;59599;47.608;12.190;2023-09-19T04:14:59;5.55;;;2.92;;
13319;SDS011;59599;47.608;12.190;2023-09-19T04:17:25;3.90;;;2.77;;
13319;SDS011;59599;47.608;12.190;2023-09-19T04:19:51;3.00;;;2.70;;
13319;SDS011;59599;47.608;12.190;2023-09-19T04:22:17;4.57;;;3.33;;
13319;SDS011;59599;47.608;12.190;2023-09-19T04:24:42;4.10;;;2.60;;
13319;SDS011;59599;47.608;12.190;2023-09-19T04:27:09;2.90;;;2.70;;
13319;SDS011;59599;47.608;12.190;2023-09-19T04:29:35;4.47;;;3.00;;
13319;SDS011;59599;47.608;12.190;2023-09-19T04:32:00;3.67;;;2.80;;
13319;SDS011;59599;47.608;12.190;2023-09-19T04:34:29;5.18;;;3.17;;
13319;SDS011;59599;47.608;12.190;2023-09-19T04:36:55;4.45;;;2.63;;
13319;SDS011;59599;47.608;12.190;2023-09-19T04:39:23;4.85;;;2.67;;
13319;SDS011;59599;47.608;12.190;2023-09-19T04:41:50;3.42;;;2.35;;
13319;SDS011;59599;47.608;12.190;2023-09-19T04:44:16;4.63;;;2.97;;
13319;SDS011;59599;47.608;12.190;2023-09-19T04:46:43;5.30;;;2.30;;
13319;SDS011;59599;47.608;12.190;2023-09-19T04:49:09;2.90;;;2.60;;
13319;SDS011;59599;47.608;12.190;2023-09-19T04:51:34;3.28;;;2.25;;
13319;SDS011;59599;47.608;12.190;2023-09-19T04:54:01;5.93;;;3.17;;
13319;SDS011;59599;47.608;12.190;2023-09-19T04:56:27;4.95;;;3.03;;
13319;SDS011;59599;47.608;12.190;2023-09-19T04:58:57;3.67;;;2.80;;
13319;SDS011;59599;47.608;12.190;2023-09-19T05:01:23;3.60;;;2.80;;
13319;SDS011;59599;47.608;12.190;2023-09-19T05:03:49;6.03;;;3.20;;
13319;SDS011;59599;47.608;12.190;2023-09-19T05:06:19;4.47;;;2.88;;
13319;SDS011;59599;47.608;12.190;2023-09-19T05:08:48;5.10;;;2.90;;
13319;SDS011;59599;47.608;12.190;2023-09-19T05:11:20;9.80;;;2.85;;
13319;SDS011;59599;47.608;12.190;2023-09-19T05:13:47;3.30;;;2.97;;
13319;SDS011;59599;47.608;12.190;2023-09-19T05:16:15;6.00;;;3.15;;
13319;SDS011;59599;47.608;12.190;2023-09-19T05:18:41;4.07;;;3.67;;
13319;SDS011;59599;47.608;12.190;2023-09-19T05:21:07;5.07;;;3.20;;
13319;SDS011;59599;47.608;12.190;2023-09-19T05:23:33;4.97;;;2.80;;
13319;SDS011;59599;47.608;12.190;2023-09-19T05:25:59;6.90;;;2.83;;
13319;SDS011;59599;47.608;12.190;2023-09-19T05:28:25;6.72;;;2.83;;
13319;SDS011;59599;47.608;12.190;2023-09-19T05:30:51;2.60;;;2.40;;
13319;SDS011;59599;47.608;12.190;2023-09-19T05:33:18;2.87;;;2.10;;
13319;SDS011;59599;47.608;12.190;2023-09-19T05:35:44;3.10;;;2.22;;
13319;SDS011;59599;47.608;12.190;2023-09-19T05:38:12;3.53;;;2.60;;
13319;SDS011;59599;47.608;12.190;2023-09-19T05:40:38;3.20;;;2.40;;
13319;SDS011;59599;47.608;12.190;2023-09-19T05:43:07;6.60;;;2.57;;
13319;SDS011;59599;47.608;12.190;2023-09-19T05:45:33;2.97;;;1.90;;
13319;SDS011;59599;47.608;12.190;2023-09-19T05:48:06;3.97;;;2.00;;
13319;SDS011;59599;47.608;12.190;2023-09-19T05:50:33;2.60;;;2.10;;
13319;SDS011;59599;47.608;12.190;2023-09-19T05:52:59;3.33;;;1.77;;
13319;SDS011;59599;47.608;12.190;2023-09-19T05:55:24;6.23;;;2.20;;
13319;SDS011;59599;47.608;12.190;2023-09-19T05:57:50;2.93;;;2.00;;
13319;SDS011;59599;47.608;12.190;2023-09-19T06:00:17;6.87;;;2.33;;
13319;SDS011;59599;47.608;12.190;2023-09-19T06:02:52;3.67;;;2.20;;
13319;SDS011;59599;47.608;12.190;2023-09-19T06:05:19;2.73;;;2.10;;
13319;SDS011;59599;47.608;12.190;2023-09-19T06:07:45;4.40;;;2.20;;
13319;SDS011;59599;47.608;12.190;2023-09-19T06:10:11;2.00;;;1.80;;
13319;SDS011;59599;47.608;12.190;2023-09-19T06:12:41;5.50;;;2.10;;
13319;SDS011;59599;47.608;12.190;2023-09-19T06:15:11;6.23;;;2.77;;
13319;SDS011;59599;47.608;12.190;2023-09-19T06:17:41;3.80;;;2.13;;
13319;SDS011;59599;47.608;12.190;2023-09-19T06:20:14;3.08;;;1.90;;
13319;SDS011;59599;47.608;12.190;2023-09-19T06:22:40;2.50;;;2.23;;
13319;SDS011;59599;47.608;12.190;2023-09-19T06:25:07;3.45;;;1.92;;
13319;SDS011;59599;47.608;12.190;2023-09-19T06:27:33;4.18;;;1.90;;
13319;SDS011;59599;47.608;12.190;2023-09-19T06:30:01;3.93;;;2.10;;
13319;SDS011;59599;47.608;12.190;2023-09-19T06:32:27;3.65;;;2.08;;
13319;SDS011;59599;47.608;12.190;2023-09-19T06:34:52;2.88;;;2.25;;
13319;SDS011;59599;47.608;12.190;2023-09-19T06:37:23;2.78;;;2.28;;
13319;SDS011;59599;47.608;12.190;2023-09-19T06:39:52;5.05;;;2.15;;
13319;SDS011;59599;47.608;12.190;2023-09-19T06:42:18;2.35;;;2.15;;
13319;SDS011;59599;47.608;12.190;2023-09-19T06:44:44;7.07;;;2.08;;
13319;SDS011;59599;47.608;12.190;2023-09-19T06:47:10;6.90;;;2.40;;
13319;SDS011;59599;47.608;12.190;2023-09-19T06:49:36;2.92;;;2.10;;
13319;SDS011;59599;47.608;12.190;2023-09-19T06:52:02;3.75;;;2.20;;
13319;SDS011;59599;47.608;12.190;2023-09-19T06:54:28;6.65;;;2.33;;
13319;SDS011;59599;47.608;12.190;2023-09-19T06:56:59;4.32;;;2.33;;
13319;SDS011;59599;47.608;12.190;2023-09-19T06:59:25;2.30;;;1.75;;
13319;SDS011;59599;47.608;12.190;2023-09-19T07:01:50;6.63;;;2.25;;
13319;SDS011;59599;47.608;12.190;2023-09-19T07:04:16;8.40;;;2.30;;
13319;SDS011;59599;47.608;12.190;2023-09-19T07:06:44;2.97;;;2.45;;
13319;SDS011;59599;47.608;12.190;2023-09-19T07:09:11;3.55;;;2.05;;
13319;SDS011;59599;47.608;12.190;2023-09-19T07:11:37;3.83;;;2.38;;
13319;SDS011;59599;47.608;12.190;2023-09-19T07:14:03;3.47;;;2.22;;
13319;SDS011;59599;47.608;12.190;2023-09-19T07:16:30;4.15;;;2.33;;
13319;SDS011;59599;47.608;12.190;2023-09-19T07:18:56;8.02;;;2.47;;
13319;SDS011;59599;47.608;12.190;2023-09-19T07:21:22;3.30;;;3.00;;
13319;SDS011;59599;47.608;12.190;2023-09-19T07:23:49;6.25;;;2.75;;
13319;SDS011;59599;47.608;12.190;2023-09-19T07:26:14;9.48;;;2.95;;
13319;SDS011;59599;47.608;12.190;2023-09-19T07:28:41;3.35;;;2.40;;
13319;SDS011;59599;47.608;12.190;2023-09-19T07:31:06;4.20;;;2.63;;
13319;SDS011;59599;47.608;12.190;2023-09-19T07:33:35;3.40;;;2.33;;
13319;SDS011;59599;47.608;12.190;2023-09-19T07:36:01;3.13;;;2.35;;
13319;SDS011;59599;47.608;12.190;2023-09-19T07:38:26;4.18;;;2.17;;
13319;SDS011;59599;47.608;12.190;2023-09-19T07:40:52;4.15;;;2.40;;
13319;SDS011;59599;47.608;12.190;2023-09-19T07:43:18;2.90;;;2.53;;
13319;SDS011;59599;47.608;12.190;2023-09-19T07:45:45;4.00;;;2.40;;
13319;SDS011;59599;47.608;12.190;2023-09-19T07:48:10;5.78;;;2.45;;
13319;SDS011;59599;47.608;12.190;2023-09-19T07:50:40;4.70;;;2.20;;
13319;SDS011;59599;47.608;12.190;2023-09-19T07:53:08;3.45;;;2.17;;
13319;SDS011;59599;47.608;12.190;2023-09-19T07:55:34;3.97;;;2.40;;
13319;SDS011;59599;47.608;12.190;2023-09-19T07:57:59;10.98;;;2.40;;
13319;SDS011;59599;47.608;12.190;2023-09-19T08:00:25;6.03;;;2.67;;
13319;SDS011;59599;47.608;12.190;2023-09-19T08:02:51;5.10;;;2.03;;
13319;SDS011;59599;47.608;12.190;2023-09-19T08:05:17;3.42;;;2.30;;
13319;SDS011;59599;47.608;12.190;2023-09-19T08:07:45;3.25;;;2.15;;
13319;SDS011;59599;47.608;12.190;2023-09-19T08:10:13;3.08;;;2.40;;
13319;SDS011;59599;47.608;12.190;2023-09-19T08:12:41;4.57;;;2.55;;
13319;SDS011;59599;47.608;12.190;2023-09-19T08:15:17;2.97;;;2.50;;
13319;SDS011;59599;47.608;12.190;2023-09-19T08:17:46;3.53;;;1.73;;
13319;SDS011;59599;47.608;12.190;2023-09-19T08:20:12;3.40;;;2.70;;
13319;SDS011;59599;47.608;12.190;2023-09-19T08:22:52;2.42;;;2.22;;
13319;SDS011;59599;47.608;12.190;2023-09-19T08:25:19;4.07;;;2.33;;
13319;SDS011;59599;47.608;12.190;2023-09-19T08:27:46;3.08;;;1.80;;
13319;SDS011;59599;47.608;12.190;2023-09-19T08:30:14;4.45;;;2.10;;
13319;SDS011;59599;47.608;12.190;2023-09-19T08:32:45;2.50;;;1.92;;
13319;SDS011;59599;47.608;12.190;2023-09-19T08:35:11;3.10;;;1.98;;
13319;SDS011;59599;47.608;12.190;2023-09-19T08:37:37;2.40;;;1.98;;
13319;SDS011;59599;47.608;12.190;2023-09-19T08:40:03;2.35;;;1.65;;
13319;SDS011;59599;47.608;12.190;2023-09-19T08:42:31;2.50;;;1.80;;
13319;SDS011;59599;47.608;12.190;2023-09-19T08:44:58;4.63;;;1.77;;
13319;SDS011;59599;47.608;12.190;2023-09-19T08:47:34;3.17;;;1.92;;
13319;SDS011;59599;47.608;12.190;2023-09-19T08:50:17;3.60;;;2.00;;
13319;SDS011;59599;47.608;12.190;2023-09-19T08:52:47;3.08;;;1.98;;
13319;SDS011;59599;47.608;12.190;2023-09-19T08:55:19;4.90;;;2.50;;
13319;SDS011;59599;47.608;12.190;2023-09-19T08:57:51;3.92;;;1.70;;
13319;SDS011;59599;47.608;12.190;2023-09-19T09:00:23;3.08;;;2.00;;
13319;SDS011;59599;47.608;12.190;2023-09-19T09:02:52;5.05;;;2.08;;
13319;SDS011;59599;47.608;12.190;2023-09-19T09:05:19;2.58;;;1.80;;
13319;SDS011;59599;47.608;12.190;2023-09-19T09:07:47;4.18;;;1.90;;
13319;SDS011;59599;47.608;12.190;2023-09-19T09:10:16;4.68;;;1.75;;
13319;SDS011;59599;47.608;12.190;2023-09-19T09:12:43;4.82;;;2.10;;
13319;SDS011;59599;47.608;12.190;2023-09-19T09:15:09;3.85;;;1.90;;
13319;SDS011;59599;47.608;12.190;2023-09-19T09:17:37;2.05;;;1.85;;
13319;SDS011;59599;47.608;12.190;2023-09-19T09:20:03;2.88;;;2.08;;
13319;SDS011;59599;47.608;12.190;2023-09-19T09:22:33;3.35;;;1.60;;
13319;SDS011;59599;47.608;12.190;2023-09-19T09:24:59;2.15;;;1.80;;
13319;SDS011;59599;47.608;12.190;2023-09-19T09:27:29;3.88;;;2.67;;
13319;SDS011;59599;47.608;12.190;2023-09-19T09:29:56;2.90;;;2.10;;
13319;SDS011;59599;47.608;12.190;2023-09-19T09:34:54;5.07;;;1.70;;
13319;SDS011;59599;47.608;12.190;2023-09-19T09:37:21;3.70;;;1.80;;
13319;SDS011;59599;47.608;12.190;2023-09-19T09:39:50;3.15;;;2.03;;
13319;SDS011;59599;47.608;12.190;2023-09-19T09:42:31;2.33;;;1.40;;
13319;SDS011;59599;47.608;12.190;2023-09-19T09:45:19;6.13;;;2.05;;
13319;SDS011;59599;47.608;12.190;2023-09-19T09:48:00;1.98;;;1.50;;
13319;SDS011;59599;47.608;12.190;2023-09-19T09:50:32;2.42;;;1.60;;
13319;SDS011;59599;47.608;12.190;2023-09-19T09:53:07;2.50;;;1.60;;
13319;SDS011;59599;47.608;12.190;2023-09-19T09:55:57;3.38;;;1.42;;
13319;SDS011;59599;47.608;12.190;2023-09-19T09:58:36;4.57;;;1.58;;
13319;SDS011;59599;47.608;12.190;2023-09-19T10:01:13;2.10;;;1.27;;
13319;SDS011;59599;47.608;12.190;2023-09-19T10:03:43;2.85;;;1.63;;
13319;SDS011;59599;47.608;12.190;2023-09-19T10:06:10;3.80;;;1.65;;
13319;SDS011;59599;47.608;12.190;2023-09-19T10:08:59;1.88;;;1.40;;
13319;SDS011;59599;47.608;12.190;2023-09-19T10:11:38;3.42;;;1.35;;
13319;SDS011;59599;47.608;12.190;2023-09-19T10:14:10;2.17;;;1.30;;
13319;SDS011;59599;47.608;12.190;2023-09-19T10:16:41;3.17;;;1.63;;
13319;SDS011;59599;47.608;12.190;2023-09-19T10:19:20;2.67;;;1.40;;
13319;SDS011;59599;47.608;12.190;2023-09-19T10:21:49;1.83;;;1.33;;
13319;SDS011;59599;47.608;12.190;2023-09-19T10:24:16;3.72;;;1.55;;
13319;SDS011;59599;47.608;12.190;2023-09-19T10:26:44;2.08;;;1.58;;
13319;SDS011;59599;47.608;12.190;2023-09-19T10:29:12;1.40;;;1.27;;
13319;SDS011;59599;47.608;12.190;2023-09-19T10:31:39;1.40;;;1.30;;
13319;SDS011;59599;47.608;12.190;2023-09-19T10:34:12;3.25;;;1.60;;
13319;SDS011;59599;47.608;12.190;2023-09-19T10:36:39;2.20;;;1.30;;
13319;SDS011;59599;47.608;12.190;2023-09-19T10:39:14;1.50;;;1.40;;
13319;SDS011;59599;47.608;12.190;2023-09-19T10:41:49;2.28;;;1.50;;
13319;SDS011;59599;47.608;12.190;2023-09-19T10:44:23;2.72;;;1.38;;
13319;SDS011;59599;47.608;12.190;2023-09-19T10:46:50;1.35;;;1.25;;
13319;SDS011;59599;47.608;12.190;2023-09-19T10:49:17;3.00;;;1.70;;
13319;SDS011;59599;47.608;12.190;2023-09-19T10:51:44;3.67;;;1.60;;
13319;SDS011;59599;47.608;12.190;2023-09-19T10:54:13;5.18;;;1.63;;
13319;SDS011;59599;47.608;12.190;2023-09-19T10:56:44;1.85;;;1.30;;
13319;SDS011;59599;47.608;12.190;2023-09-19T10:59:19;3.08;;;1.83;;
13319;SDS011;59599;47.608;12.190;2023-09-19T11:01:55;2.10;;;1.70;;
13319;SDS011;59599;47.608;12.190;2023-09-19T11:04:33;2.83;;;1.92;;
13319;SDS011;59599;47.608;12.190;2023-09-19T11:07:01;4.30;;;1.55;;
13319;SDS011;59599;47.608;12.190;2023-09-19T11:12:47;5.13;;;1.70;;
13319;SDS011;59599;47.608;12.190;2023-09-19T11:16:03;5.57;;;2.10;;
13319;SDS011;59599;47.608;12.190;2023-09-19T11:24:42;4.63;;;1.90;;
13319;SDS011;59599;47.608;12.190;2023-09-19T11:27:09;3.05;;;1.80;;
13319;SDS011;59599;47.608;12.190;2023-09-19T11:29:43;5.22;;;1.80;;
13319;SDS011;59599;47.608;12.190;2023-09-19T11:32:10;6.93;;;2.00;;
13319;SDS011;59599;47.608;12.190;2023-09-19T11:39:39;2.88;;;1.52;;
13319;SDS011;59599;47.608;12.190;2023-09-19T11:42:41;3.10;;;1.70;;
13319;SDS011;59599;47.608;12.190;2023-09-19T11:48:27;2.53;;;1.70;;
13319;SDS011;59599;47.608;12.190;2023-09-19T11:50:56;1.80;;;1.40;;
13319;SDS011;59599;47.608;12.190;2023-09-19T11:53:53;1.30;;;1.20;;
13319;SDS011;59599;47.608;12.190;2023-09-19T11:56:24;2.35;;;1.50;;
13319;SDS011;59599;47.608;12.190;2023-09-19T11:58:54;1.20;;;0.95;;
13319;SDS011;59599;47.608;12.190;2023-09-19T12:01:22;1.45;;;1.30;;
13319;SDS011;59599;47.608;12.190;2023-09-19T12:03:52;1.55;;;1.40;;
13319;SDS011;59599;47.608;12.190;2023-09-19T12:06:21;4.18;;;1.98;;
13319;SDS011;59599;47.608;12.190;2023-09-19T12:08:48;2.33;;;1.50;;
13319;SDS011;59599;47.608;12.190;2023-09-19T12:11:16;3.25;;;1.45;;
13319;SDS011;59599;47.608;12.190;2023-09-19T12:13:45;1.90;;;1.35;;
13319;SDS011;59599;47.608;12.190;2023-09-19T12:16:17;3.63;;;1.55;;
13319;SDS011;59599;47.608;12.190;2023-09-19T12:18:46;4.05;;;1.50;;
13319;SDS011;59599;47.608;12.190;2023-09-19T12:23:59;2.40;;;1.52;;
13319;SDS011;59599;47.608;12.190;2023-09-19T12:26:28;3.72;;;1.80;;
13319;SDS011;59599;47.608;12.190;2023-09-19T12:28:54;2.25;;;1.30;;
13319;SDS011;59599;47.608;12.190;2023-09-19T12:31:21;2.42;;;1.60;;
13319;SDS011;59599;47.608;12.190;2023-09-19T12:33:52;2.85;;;1.40;;
13319;SDS011;59599;47.608;12.190;2023-09-19T12:36:24;1.40;;;1.23;;
13319;SDS011;59599;47.608;12.190;2023-09-19T12:38:56;1.80;;;1.30;;
13319;SDS011;59599;47.608;12.190;2023-09-19T12:41:24;1.60;;;1.50;;
13319;SDS011;59599;47.608;12.190;2023-09-19T12:43:50;2.50;;;1.33;;
13319;SDS011;59599;47.608;12.190;2023-09-19T12:46:19;3.03;;;1.40;;
13319;SDS011;59599;47.608;12.190;2023-09-19T12:48:50;2.17;;;1.40;;
13319;SDS011;59599;47.608;12.190;2023-09-19T12:51:48;1.20;;;1.00;;
13319;SDS011;59599;47.608;12.190;2023-09-19T12:54:14;1.65;;;0.85;;
13319;SDS011;59599;47.608;12.190;2023-09-19T12:56:42;1.85;;;1.02;;
13319;SDS011;59599;47.608;12.190;2023-09-19T12:59:13;1.00;;;0.90;;
13319;SDS011;59599;47.608;12.190;2023-09-19T13:01:41;1.00;;;0.95;;
13319;SDS011;59599;47.608;12.190;2023-09-19T13:04:15;1.58;;;1.00;;
13319;SDS011;59599;47.608;12.190;2023-09-19T13:06:48;2.20;;;0.82;;
13319;SDS011;59599;47.608;12.190;2023-09-19T13:09:15;1.38;;;0.90;;
13319;SDS011;59599;47.608;12.190;2023-09-19T13:11:42;3.22;;;1.00;;
13319;SDS011;59599;47.608;12.190;2023-09-19T13:14:25;1.33;;;1.10;;
13319;SDS011;59599;47.608;12.190;2023-09-19T13:19:41;3.97;;;0.90;;
13319;SDS011;59599;47.608;12.190;2023-09-19T13:25:08;1.30;;;0.90;;
13319;SDS011;59599;47.608;12.190;2023-09-19T13:27:44;1.10;;;0.98;;
13319;SDS011;59599;47.608;12.190;2023-09-19T13:30:16;1.15;;;0.98;;
13319;SDS011;59599;47.608;12.190;2023-09-19T13:32:42;2.95;;;1.10;;
13319;SDS011;59599;47.608;12.190;2023-09-19T13:35:09;2.40;;;1.27;;
13319;SDS011;59599;47.608;12.190;2023-09-19T13:37:35;1.33;;;1.10;;
13319;SDS011;59599;47.608;12.190;2023-09-19T13:40:07;1.30;;;1.13;;
13319;SDS011;59599;47.608;12.190;2023-09-19T13:42:33;1.65;;;1.08;;
13319;SDS011;59599;47.608;12.190;2023-09-19T13:45:01;1.42;;;1.10;;
13319;SDS011;59599;47.608;12.190;2023-09-19T13:47:27;2.17;;;1.13;;
13319;SDS011;59599;47.608;12.190;2023-09-19T13:49:53;3.85;;;0.90;;
13319;SDS011;59599;47.608;12.190;2023-09-19T13:52:19;2.90;;;0.82;;
13319;SDS011;59599;47.608;12.190;2023-09-19T13:54:46;1.38;;;1.05;;
13319;SDS011;59599;47.608;12.190;2023-09-19T13:57:12;1.25;;;1.00;;
13319;SDS011;59599;47.608;12.190;2023-09-19T13:59:39;2.65;;;1.00;;
13319;SDS011;59599;47.608;12.190;2023-09-19T14:02:05;1.30;;;1.05;;
13319;SDS011;59599;47.608;12.190;2023-09-19T14:04:35;0.90;;;0.90;;
13319;SDS011;59599;47.608;12.190;2023-09-19T14:07:00;1.60;;;0.98;;
13319;SDS011;59599;47.608;12.190;2023-09-19T14:09:27;0.80;;;0.73;;
13319;SDS011;59599;47.608;12.190;2023-09-19T14:11:52;1.80;;;1.08;;
13319;SDS011;59599;47.608;12.190;2023-09-19T14:14:18;1.98;;;1.08;;
13319;SDS011;59599;47.608;12.190;2023-09-19T14:16:45;3.42;;;1.05;;
13319;SDS011;59599;47.608;12.190;2023-09-19T14:19:12;1.52;;;1.08;;
13319;SDS011;59599;47.608;12.190;2023-09-19T14:21:41;1.02;;;0.90;;
13319;SDS011;59599;47.608;12.190;2023-09-19T14:24:07;1.42;;;1.10;;
13319;SDS011;59599;47.608;12.190;2023-09-19T14:26:37;3.42;;;1.02;;
13319;SDS011;59599;47.608;12.190;2023-09-19T14:29:04;2.30;;;1.00;;
13319;SDS011;59599;47.608;12.190;2023-09-19T14:31:32;1.20;;;0.90;;
13319;SDS011;59599;47.608;12.190;2023-09-19T14:33:58;0.93;;;0.82;;
13319;SDS011;59599;47.608;12.190;2023-09-19T14:36:24;1.58;;;0.93;;
13319;SDS011;59599;47.608;12.190;2023-09-19T14:38:55;2.00;;;0.80;;
13319;SDS011;59599;47.608;12.190;2023-09-19T14:41:21;1.02;;;0.70;;
13319;SDS011;59599;47.608;12.190;2023-09-19T14:43:48;1.38;;;0.98;;
13319;SDS011;59599;47.608;12.190;2023-09-19T14:46:14;1.25;;;0.93;;
13319;SDS011;59599;47.608;12.190;2023-09-19T14:48:41;4.18;;;1.38;;
13319;SDS011;59599;47.608;12.190;2023-09-19T14:51:10;1.30;;;1.00;;
13319;SDS011;59599;47.608;12.190;2023-09-19T14:53:43;2.25;;;1.25;;
13319;SDS011;59599;47.608;12.190;2023-09-19T14:56:11;1.13;;;0.90;;
13319;SDS011;59599;47.608;12.190;2023-09-19T14:58:57;2.45;;;1.10;;
13319;SDS011;59599;47.608;12.190;2023-09-19T15:01:25;1.20;;;0.93;;
13319;SDS011;59599;47.608;12.190;2023-09-19T15:04:00;1.10;;;0.93;;
13319;SDS011;59599;47.608;12.190;2023-09-19T15:10:20;0.80;;;0.80;;
13319;SDS011;59599;47.608;12.190;2023-09-19T15:12:55;1.15;;;0.93;;
13319;SDS011;59599;47.608;12.190;2023-09-19T15:15:24;4.65;;;1.00;;
13319;SDS011;59599;47.608;12.190;2023-09-19T15:18:00;1.25;;;0.90;;
13319;SDS011;59599;47.608;12.190;2023-09-19T15:21:10;1.25;;;0.90;;
13319;SDS011;59599;47.608;12.190;2023-09-19T15:23:43;0.88;;;0.80;;
13319;SDS011;59599;47.608;12.190;2023-09-19T15:26:26;0.82;;;0.60;;
13319;SDS011;59599;47.608;12.190;2023-09-19T15:29:23;1.63;;;0.90;;
13319;SDS011;59599;47.608;12.190;2023-09-19T15:32:22;1.17;;;0.82;;
13319;SDS011;59599;47.608;12.190;2023-09-19T15:34:48;0.82;;;0.68;;
13319;SDS011;59599;47.608;12.190;2023-09-19T15:37:14;1.10;;;0.90;;
13319;SDS011;59599;47.608;12.190;2023-09-19T15:39:41;4.03;;;0.85;;
13319;SDS011;59599;47.608;12.190;2023-09-19T15:42:08;1.00;;;0.70;;
13319;SDS011;59599;47.608;12.190;2023-09-19T15:44:33;1.40;;;1.00;;
13319;SDS011;59599;47.608;12.190;2023-09-19T15:46:59;1.23;;;0.85;;
13319;SDS011;59599;47.608;12.190;2023-09-19T15:49:25;1.02;;;0.75;;
13319;SDS011;59599;47.608;12.190;2023-09-19T15:51:51;1.20;;;0.98;;
13319;SDS011;59599;47.608;12.190;2023-09-19T15:54:17;1.27;;;0.73;;
13319;SDS011;59599;47.608;12.190;2023-09-19T15:56:43;2.00;;;1.00;;
13319;SDS011;59599;47.608;12.190;2023-09-19T15:59:10;1.88;;;1.02;;
13319;SDS011;59599;47.608;12.190;2023-09-19T16:01:43;1.48;;;0.70;;
13319;SDS011;59599;47.608;12.190;2023-09-19T16:04:09;0.90;;;0.80;;
13319;SDS011;59599;47.608;12.190;2023-09-19T16:06:36;1.15;;;0.70;;
13319;SDS011;59599;47.608;12.190;2023-09-19T16:09:03;2.00;;;1.15;;
13319;SDS011;59599;47.608;12.190;2023-09-19T16:11:29;1.13;;;0.88;;
13319;SDS011;59599;47.608;12.190;2023-09-19T16:13:57;1.80;;;0.90;;
13319;SDS011;59599;47.608;12.190;2023-09-19T16:16:23;2.38;;;1.10;;
13319;SDS011;59599;47.608;12.190;2023-09-19T16:18:51;2.75;;;0.98;;
13319;SDS011;59599;47.608;12.190;2023-09-19T16:21:18;1.00;;;0.90;;
13319;SDS011;59599;47.608;12.190;2023-09-19T16:23:48;0.80;;;0.80;;
13319;SDS011;59599;47.608;12.190;2023-09-19T16:26:19;2.45;;;0.77;;
13319;SDS011;59599;47.608;12.190;2023-09-19T16:28:45;2.67;;;0.90;;
13319;SDS011;59599;47.608;12.190;2023-09-19T16:31:12;2.03;;;1.05;;
13319;SDS011;59599;47.608;12.190;2023-09-19T16:33:44;2.72;;;0.98;;
13319;SDS011;59599;47.608;12.190;2023-09-19T16:36:12;1.83;;;1.20;;
13319;SDS011;59599;47.608;12.190;2023-09-19T16:38:43;1.35;;;1.00;;
13319;SDS011;59599;47.608;12.190;2023-09-19T16:41:10;1.83;;;0.93;;
13319;SDS011;59599;47.608;12.190;2023-09-19T16:43:37;0.80;;;0.80;;
13319;SDS011;59599;47.608;12.190;2023-09-19T16:46:09;3.05;;;1.20;;
13319;SDS011;59599;47.608;12.190;2023-09-19T16:48:40;1.05;;;0.98;;
13319;SDS011;59599;47.608;12.190;2023-09-19T16:51:07;2.25;;;0.90;;
13319;SDS011;59599;47.608;12.190;2023-09-19T16:53:38;2.03;;;0.88;;
13319;SDS011;59599;47.608;12.190;2023-09-19T16:56:08;1.67;;;0.95;;
13319;SDS011;59599;47.608;12.190;2023-09-19T16:58:35;1.30;;;0.88;;
13319;SDS011;59599;47.608;12.190;2023-09-19T17:01:01;3.13;;;1.10;;
13319;SDS011;59599;47.608;12.190;2023-09-19T17:03:27;2.75;;;1.00;;
13319;SDS011;59599;47.608;12.190;2023-09-19T17:05:57;2.17;;;1.00;;
13319;SDS011;59599;47.608;12.190;2023-09-19T17:08:26;2.92;;;1.17;;
13319;SDS011;59599;47.608;12.190;2023-09-19T17:10:59;2.83;;;1.20;;
13319;SDS011;59599;47.608;12.190;2023-09-19T17:13:29;5.50;;;1.50;;
13319;SDS011;59599;47.608;12.190;2023-09-19T17:16:05;1.38;;;1.10;;
13319;SDS011;59599;47.608;12.190;2023-09-19T17:18:36;2.88;;;1.40;;
13319;SDS011;59599;47.608;12.190;2023-09-19T17:21:02;2.25;;;1.35;;
13319;SDS011;59599;47.608;12.190;2023-09-19T17:23:33;1.63;;;1.10;;
13319;SDS011;59599;47.608;12.190;2023-09-19T17:26:00;3.85;;;1.10;;
13319;SDS011;59599;47.608;12.190;2023-09-19T17:28:31;2.05;;;1.02;;
13319;SDS011;59599;47.608;12.190;2023-09-19T17:30:57;3.20;;;1.10;;
13319;SDS011;59599;47.608;12.190;2023-09-19T17:33:23;1.73;;;1.20;;
13319;SDS011;59599;47.608;12.190;2023-09-19T17:35:51;2.92;;;1.20;;
13319;SDS011;59599;47.608;12.190;2023-09-19T17:38:17;1.17;;;0.93;;
13319;SDS011;59599;47.608;12.190;2023-09-19T17:40:43;1.30;;;0.95;;
13319;SDS011;59599;47.608;12.190;2023-09-19T17:43:09;2.35;;;1.08;;
13319;SDS011;59599;47.608;12.190;2023-09-19T17:45:35;3.67;;;1.02;;
13319;SDS011;59599;47.608;12.190;2023-09-19T17:48:01;1.98;;;1.02;;
13319;SDS011;59599;47.608;12.190;2023-09-19T17:50:27;2.85;;;1.65;;
13319;SDS011;59599;47.608;12.190;2023-09-19T17:52:53;1.65;;;1.13;;
13319;SDS011;59599;47.608;12.190;2023-09-19T17:55:19;3.35;;;1.60;;
13319;SDS011;59599;47.608;12.190;2023-09-19T17:57:45;2.13;;;1.30;;
13319;SDS011;59599;47.608;12.190;2023-09-19T18:00:12;2.00;;;1.30;;
13319;SDS011;59599;47.608;12.190;2023-09-19T18:02:40;3.35;;;1.20;;
13319;SDS011;59599;47.608;12.190;2023-09-19T18:05:06;4.13;;;1.40;;
13319;SDS011;59599;47.608;12.190;2023-09-19T18:07:42;2.00;;;1.00;;
13319;SDS011;59599;47.608;12.190;2023-09-19T18:10:09;2.22;;;1.10;;
13319;SDS011;59599;47.608;12.190;2023-09-19T18:12:35;6.47;;;1.33;;
13319;SDS011;59599;47.608;12.190;2023-09-19T18:15:02;2.40;;;1.30;;
13319;SDS011;59599;47.608;12.190;2023-09-19T18:17:28;1.60;;;1.00;;
13319;SDS011;59599;47.608;12.190;2023-09-19T18:19:54;5.25;;;1.17;;
13319;SDS011;59599;47.608;12.190;2023-09-19T18:22:20;1.20;;;1.10;;
13319;SDS011;59599;47.608;12.190;2023-09-19T18:24:46;1.00;;;0.90;;
13319;SDS011;59599;47.608;12.190;2023-09-19T18:27:11;3.10;;;1.08;;
13319;SDS011;59599;47.608;12.190;2023-09-19T18:29:38;2.35;;;1.10;;
13319;SDS011;59599;47.608;12.190;2023-09-19T18:32:08;0.85;;;0.80;;
13319;SDS011;59599;47.608;12.190;2023-09-19T18:34:34;0.98;;;0.80;;
13319;SDS011;59599;47.608;12.190;2023-09-19T18:37:00;1.63;;;1.00;;
13319;SDS011;59599;47.608;12.190;2023-09-19T18:39:28;2.00;;;0.90;;
13319;SDS011;59599;47.608;12.190;2023-09-19T18:41:55;0.93;;;0.90;;
13319;SDS011;59599;47.608;12.190;2023-09-19T18:44:21;2.35;;;1.02;;
13319;SDS011;59599;47.608;12.190;2023-09-19T18:46:47;3.10;;;1.05;;
13319;SDS011;59599;47.608;12.190;2023-09-19T18:49:13;1.92;;;1.30;;
13319;SDS011;59599;47.608;12.190;2023-09-19T18:51:41;2.20;;;1.20;;
13319;SDS011;59599;47.608;12.190;2023-09-19T18:54:08;2.38;;;1.23;;
13319;SDS011;59599;47.608;12.190;2023-09-19T18:56:36;2.10;;;1.02;;